FW9786 Weather Reports


Display with metric or nautical units.
time (UTC)temp
F
wind
direction
speed
MPH
gust
MPH
rain 1hr
in
rain 24hr
in
rain mn
in
humidity
%
barometer
mb
20220119203811 33 316 2.0 2.0 0.00 0.00 0.00 59 1012.7
20220119203309 34 293 2.0 2.0 0.00 0.00 0.00 59 1012.8
20220119202806 33 295 2.0 2.0 0.00 0.00 0.00 58 1012.7
20220119202306 34 306 2.0 2.0 0.00 0.00 0.00 58 1012.8
20220119201805 34 300 1.0 2.0 0.00 0.00 0.00 60 1012.9
20220119201304 35 289 3.0 5.0 0.00 0.00 0.00 60 1012.8
20220119200803 34 276 2.0 2.0 0.00 0.00 0.00 62 1012.8
20220119200301 34 313 1.0 2.0 0.00 0.00 0.00 61 1012.8
20220119195800 34 288 2.0 2.0 0.00 0.00 0.00 60 1012.7
20220119195259 34 79 4.0 5.0 0.00 0.00 0.00 60 1012.9
20220119194758 35 289 3.0 3.0 0.00 0.00 0.00 58 1013.2
20220119194257 35 114 4.0 6.0 0.00 0.00 0.00 62 1012.9
20220119193755 35 311 2.0 2.0 0.00 0.00 0.00 60 1013.0
20220119193254 36 269 3.0 3.0 0.00 0.00 0.00 57 1012.9
20220119192753 36 317 0.0 0.0 0.00 0.00 0.00 57 1012.5
20220119192251 36 300 2.0 2.0 0.00 0.00 0.00 59 1012.7
20220119191751 37 247 2.0 3.0 0.00 0.00 0.00 58 1012.8
20220119191251 37 294 2.0 2.0 0.00 0.00 0.00 57 1012.7
20220119190750 36 306 1.0 1.0 0.00 0.00 0.00 57 1012.7
20220119190249 37 289 2.0 2.0 0.00 0.00 0.00 53 1012.8
20220119185748 37 292 2.0 2.0 0.00 0.00 0.00 55 1012.8
20220119185246 36 6 3.0 3.0 0.00 0.00 0.00 53 1013.0
20220119184745 36 358 3.0 3.0 0.00 0.00 0.00 53 1012.9
20220119184246 38 300 2.0 2.0 0.00 0.00 0.00 52 1012.9
20220119183744 36 338 1.0 1.0 0.00 0.00 0.00 52 1012.9
20220119183243 40 171 3.0 3.0 0.00 0.00 0.00 48 1013.3
20220119182741 38 314 1.0 1.0 0.00 0.00 0.00 48 1013.3
20220119182239 37 357 2.0 2.0 0.00 0.00 0.00 52 1013.0
20220119181738 38 120 3.0 3.0 0.00 0.00 0.00 52 1013.3
20220119181237 37 353 3.0 3.0 0.00 0.00 0.00 51 1013.4
20220119180736 36 325 0.0 0.0 0.00 0.00 0.00 49 1013.7
20220119180235 37 169 3.0 3.0 0.00 0.00 0.00 50 1013.4
20220119175736 36 236 3.0 3.0 0.00 0.00 0.00 50 1013.7
20220119175234 35 98 3.0 5.0 0.00 0.00 0.00 53 1013.3
20220119174733 35 320 1.0 1.0 0.00 0.00 0.00 50 1013.7
20220119174232 35 358 1.0 1.0 0.00 0.00 0.00 51 1013.4
20220119173733 35 45 3.0 5.0 0.00 0.00 0.00 51 1013.4
20220119173232 35 330 0.0 1.0 0.00 0.00 0.00 51 1013.5
20220119172731 34 259 3.0 3.0 0.00 0.00 0.00 52 1013.3
20220119172231 34 93 3.0 3.0 0.00 0.00 0.00 53 1013.3
20220119171730 33 267 3.0 3.0 0.00 0.00 0.00 53 1013.3
20220119171228 33 316 2.0 2.0 0.00 0.00 0.00 53 1013.3
20220119170727 33 354 1.0 1.0 0.00 0.00 0.00 54 1013.3
20220119170226 33 279 1.0 2.0 0.00 0.00 0.00 53 1013.2
20220119165725 32 302 1.0 2.0 0.00 0.00 0.00 54 1013.0
20220119165223 31 350 2.0 2.0 0.00 0.00 0.00 58 1012.9
20220119164721 30 345 1.0 2.0 0.00 0.00 0.00 59 1012.8
20220119164219 31 355 2.0 2.0 0.00 0.00 0.00 62 1013.0
20220119163719 32 306 1.0 2.0 0.00 0.00 0.00 63 1012.8
20220119163217 30 334 0.0 0.0 0.00 0.00 0.00 64 1012.9
20220119162716 29 334 0.0 0.0 0.00 0.00 0.00 63 1013.0
20220119162214 29 335 0.0 0.0 0.00 0.00 0.00 64 1012.8
20220119161713 29 329 0.0 0.0 0.00 0.00 0.00 64 1012.9
20220119161212 29 329 1.0 1.0 0.00 0.00 0.00 64 1012.9
20220119160710 28 344 0.0 1.0 0.00 0.00 0.00 68 1012.8
20220119160208 28 355 2.0 2.0 0.00 0.00 0.00 69 1012.7
20220119155706 28 335 0.0 0.0 0.00 0.00 0.00 69 1012.7
20220119155207 27 335 0.0 0.0 0.00 0.00 0.00 71 1012.8
20220119154705 28 335 0.0 0.0 0.00 0.00 0.00 73 1012.5
20220119154204 28 335 0.0 0.0 0.00 0.00 0.00 69 1012.8
20220119153700 29 337 1.0 1.0 0.00 0.00 0.00 67 1012.4
20220119153156 28 335 0.0 0.0 0.00 0.00 0.00 73 1012.7
20220119152655 27 336 0.0 0.0 0.00 0.00 0.00 72 1012.5
20220119152153 27 336 0.0 0.0 0.00 0.00 0.00 73 1012.4
20220119151651 26 336 0.0 0.0 0.00 0.00 0.00 77 1012.5
20220119151149 26 336 0.0 0.0 0.00 0.00 0.00 77 1012.5
20220119150648 26 336 0.0 0.0 0.00 0.00 0.00 77 1012.0
20220119150147 26 336 0.0 0.0 0.00 0.00 0.00 74 1012.3
20220119145646 26 336 0.0 0.0 0.00 0.00 0.00 75 1012.3
20220119145145 25 336 0.0 1.0 0.00 0.00 0.00 75 1012.3
20220119144644 25 336 0.0 0.0 0.00 0.00 0.00 75 1012.0
20220119144144 24 336 0.0 0.0 0.00 0.00 0.00 75 1012.4
20220119143642 24 336 0.0 0.0 0.00 0.00 0.00 75 1011.9
20220119143141 24 336 1.0 1.0 0.00 0.00 0.00 76 1012.1
20220119142639 24 335 0.0 0.0 0.00 0.00 0.00 76 1011.9
20220119142135 24 335 0.0 0.0 0.00 0.00 0.00 76 1012.0
20220119141636 24 335 0.0 0.0 0.00 0.00 0.00 76 1011.8
20220119141134 24 335 0.0 1.0 0.00 0.00 0.00 75 1012.0
20220119140633 24 336 0.0 1.0 0.00 0.00 0.00 76 1012.0
20220119140131 24 335 0.0 0.0 0.00 0.00 0.00 77 1011.8
20220119135629 25 335 0.0 0.0 0.00 0.00 0.00 77 1011.9
20220119135128 25 335 0.0 1.0 0.00 0.00 0.00 76 1011.9
20220119134628 25 336 1.0 1.0 0.00 0.00 0.00 77 1011.8
20220119134126 25 335 0.0 0.0 0.00 0.00 0.00 77 1011.6
20220119133624 24 335 0.0 0.0 0.00 0.00 0.00 78 1011.6
20220119133123 24 335 0.0 0.0 0.00 0.00 0.00 77 1011.6
20220119132622 24 335 0.0 0.0 0.00 0.00 0.00 77 1011.5
20220119132118 25 335 0.0 0.0 0.00 0.00 0.00 77 1011.2
20220119131618 25 335 0.0 0.0 0.00 0.00 0.00 76 1011.4
20220119131117 26 335 0.0 0.0 0.00 0.00 0.00 75 1011.4
20220119130616 26 335 0.0 0.0 0.00 0.00 0.00 75 1011.1
20220119130114 26 335 0.0 0.0 0.00 0.00 0.00 75 1011.1
20220119125613 25 335 0.0 0.0 0.00 0.00 0.00 76 1011.4
20220119125113 25 335 0.0 0.0 0.00 0.00 0.00 76 1011.0
20220119124612 25 335 0.0 0.0 0.00 0.00 0.00 77 1011.0
20220119124111 25 335 0.0 1.0 0.00 0.00 0.00 77 1011.0
20220119123610 25 336 1.0 1.0 0.00 0.00 0.00 77 1011.2
20220119123109 24 335 1.0 1.0 0.00 0.00 0.00 76 1011.0
20220119122608 24 335 0.0 0.0 0.00 0.00 0.00 77 1011.4
20220119122106 24 335 0.0 0.0 0.00 0.00 0.00 77 1010.9
20220119121605 25 335 1.0 1.0 0.00 0.00 0.00 76 1010.7
20220119121104 25 333 1.0 1.0 0.00 0.00 0.00 73 1011.0
20220119120603 26 339 1.0 1.0 0.00 0.00 0.00 76 1010.9
20220119120059 26 338 0.0 1.0 0.00 0.00 0.00 75 1010.5
20220119115558 26 338 0.0 1.0 0.00 0.00 0.00 77 1010.6
20220119115058 26 338 1.0 1.0 0.00 0.00 0.00 77 1010.6
20220119114558 26 338 1.0 1.0 0.00 0.00 0.00 76 1010.9
20220119114056 26 338 1.0 1.0 0.00 0.00 0.00 77 1010.6
20220119113557 26 338 0.0 1.0 0.00 0.00 0.00 77 1010.7
20220119113056 26 338 1.0 1.0 0.00 0.00 0.00 77 1010.7
20220119112555 25 338 1.0 1.0 0.00 0.00 0.00 76 1010.9
20220119112054 25 338 1.0 1.0 0.00 0.00 0.00 76 1010.6
20220119111554 25 338 0.0 0.0 0.00 0.00 0.00 76 1010.7
20220119111052 25 338 0.0 0.0 0.00 0.00 0.00 77 1010.7
20220119110552 26 338 0.0 0.0 0.00 0.00 0.00 77 1010.6
20220119110051 26 338 1.0 1.0 0.00 0.00 0.00 76 1010.9
20220119105551 26 338 0.0 0.0 0.00 0.00 0.00 77 1010.7
20220119105050 26 338 1.0 1.0 0.00 0.00 0.00 75 1010.7
20220119104548 26 335 1.0 1.0 0.00 0.00 0.00 76 1010.5
20220119104048 26 336 2.0 2.0 0.00 0.00 0.00 76 1010.5
20220119103547 26 343 2.0 2.0 0.00 0.00 0.00 77 1010.6
20220119103045 26 334 0.0 0.0 0.00 0.00 0.00 77 1010.5
20220119102546 26 329 1.0 1.0 0.00 0.00 0.00 78 1010.7
20220119102044 26 329 0.0 1.0 0.00 0.00 0.00 78 1010.6
20220119101543 27 332 1.0 1.0 0.00 0.00 0.00 77 1010.2
20220119101043 26 333 1.0 2.0 0.00 0.00 0.00 77 1010.5
20220119100542 27 335 1.0 2.0 0.00 0.00 0.00 78 1010.6
20220119100041 27 334 0.0 0.0 0.00 0.00 0.00 77 1010.2
20220119095539 27 334 1.0 1.0 0.00 0.00 0.00 79 1010.5
20220119095037 27 334 0.0 1.0 0.00 0.00 0.00 78 1010.4
20220119094537 26 331 0.0 0.0 0.00 0.00 0.00 79 1010.5
20220119094036 27 329 1.0 1.0 0.00 0.00 0.00 78 1010.2
20220119093534 27 335 0.0 1.0 0.00 0.00 0.00 78 1010.5
20220119093033 27 333 0.0 0.0 0.00 0.00 0.00 79 1010.0
20220119092531 27 332 0.0 0.0 0.00 0.00 0.00 80 1010.2
20220119092029 26 331 0.0 0.0 0.00 0.00 0.00 82 1010.0
20220119091529 27 330 0.0 0.0 0.00 0.00 0.00 82 1010.2
20220119091027 27 330 0.0 0.0 0.00 0.00 0.00 82 1010.4
20220119090525 27 331 0.0 0.0 0.00 0.00 0.00 81 1010.4
20220119090024 27 330 0.0 0.0 0.00 0.00 0.00 81 1010.2
20220119085522 27 330 0.0 0.0 0.00 0.00 0.00 81 1009.8
20220119085021 27 330 0.0 0.0 0.00 0.00 0.00 81 1010.4
20220119084520 27 330 0.0 0.0 0.00 0.00 0.00 82 1010.0
20220119084019 27 330 0.0 0.0 0.00 0.00 0.00 82 1010.2
20220119083517 27 329 0.0 0.0 0.00 0.00 0.00 81 1010.4
20220119083017 27 329 0.0 0.0 0.00 0.00 0.00 81 1010.4
20220119082516 27 329 0.0 0.0 0.00 0.00 0.00 81 1010.2
20220119082016 27 329 0.0 0.0 0.00 0.00 0.00 81 1010.6
20220119081514 27 329 1.0 1.0 0.00 0.00 0.00 81 1010.4
20220119081014 27 329 0.0 0.0 0.00 0.00 0.00 81 1010.4
20220119080513 27 329 0.0 0.0 0.00 0.00 0.00 81 1010.4
20220119080011 27 328 0.0 0.0 0.00 0.00 0.00 81 1010.4
20220119075512 27 328 0.0 0.0 0.00 0.00 0.00 81 1010.2
20220119075011 27 328 0.0 0.0 0.00 0.00 0.00 80 1009.8
20220119074510 28 328 0.0 0.0 0.00 0.00 0.00 81 1010.0
20220119074008 28 328 0.0 0.0 0.00 0.00 0.00 80 1010.0
20220119073507 28 328 0.0 1.0 0.00 0.00 0.00 80 1009.7
20220119073005 28 328 1.0 1.0 0.00 0.00 0.00 81 1009.6
20220119072505 27 332 0.0 0.0 0.00 0.00 0.00 82 1010.0
20220119072005 27 329 0.0 0.0 0.00 0.00 0.00 82 1010.0
20220119071504 27 328 0.0 0.0 0.00 0.00 0.00 82 1010.2
20220119071004 28 326 0.0 0.0 0.00 0.00 0.00 82 1010.4
20220119070502 28 326 0.0 0.0 0.00 0.00 0.00 82 1010.2
20220119070002 28 323 0.0 0.0 0.00 0.00 0.00 81 1010.2
20220119065500 28 323 0.0 0.0 0.00 0.00 0.00 81 1010.2
20220119065000 28 322 0.0 0.0 0.00 0.00 0.00 81 1010.2
20220119064458 29 321 0.0 0.0 0.00 0.00 0.00 80 1010.4
20220119063958 29 332 0.0 0.0 0.00 0.00 0.00 79 1010.1
20220119063457 29 324 0.0 0.0 0.00 0.00 0.00 79 1010.0
20220119062956 29 323 0.0 1.0 0.00 0.00 0.00 79 1010.1
20220119062457 29 323 0.0 0.0 0.00 0.00 0.00 79 1010.1
20220119061956 29 328 0.0 0.0 0.00 0.00 0.00 79 1010.6
20220119061455 30 319 0.0 0.0 0.00 0.00 0.00 77 1010.2
20220119060953 30 330 0.0 0.0 0.00 0.00 0.00 77 1010.2
20220119060452 30 321 0.0 1.0 0.00 0.00 0.00 77 1010.1
20220119055951 30 332 0.0 1.0 0.00 0.00 0.00 77 1010.2
20220119055448 30 314 3.0 3.0 0.00 0.00 0.00 76 1010.4
20220119054946 30 317 2.0 2.0 0.00 0.00 0.00 78 1010.4
20220119054446 30 325 1.0 1.0 0.00 0.00 0.00 78 1010.2
20220119053945 30 321 0.0 0.0 0.00 0.00 0.00 79 1010.0
20220119053443 30 329 1.0 1.0 0.00 0.00 0.00 78 1010.0
20220119052944 30 317 1.0 1.0 0.00 0.00 0.00 78 1010.1
20220119052443 30 335 1.0 1.0 0.00 0.00 0.00 78 1010.2
20220119051943 30 327 1.0 1.0 0.00 0.00 0.00 77 1010.4
20220119051441 30 336 1.0 1.0 0.00 0.00 0.00 77 1010.0
20220119050940 30 321 1.0 1.0 0.00 0.00 0.00 77 1010.0
20220119050439 30 313 1.0 2.0 0.00 0.00 0.00 76 1010.1
20220119045938 30 322 0.0 1.0 0.00 0.00 0.00 76 1009.8
20220119045436 30 325 0.0 0.0 0.00 0.00 0.00 75 1010.0
20220119044936 30 330 1.0 2.0 0.00 0.00 0.00 75 1010.0
20220119044435 30 78 3.0 5.0 0.00 0.00 0.00 74 1009.8
20220119043933 30 334 2.0 2.0 0.00 0.00 0.00 73 1009.8
20220119043432 31 310 0.0 0.0 0.00 0.00 0.00 71 1010.1
20220119042931 31 32 3.0 3.0 0.00 0.00 0.00 70 1010.1
20220119042430 31 297 1.0 2.0 0.00 0.00 0.00 68 1009.8
20220119041929 31 313 1.0 1.0 0.00 0.00 0.00 68 1010.0
20220119041428 31 34 3.0 3.0 0.00 0.00 0.00 68 1010.0
20220119040929 31 315 0.0 1.0 0.00 0.00 0.00 70 1010.1
20220119040428 31 312 1.0 1.0 0.00 0.00 0.00 63 1010.4
20220119035926 31 303 0.0 1.0 0.00 0.00 0.00 63 1010.0
20220119035425 31 306 1.0 1.0 0.00 0.00 0.00 63 1010.2
20220119034923 32 314 0.0 0.0 0.00 0.00 0.00 57 1010.2
20220119034423 31 310 0.0 1.0 0.00 0.00 0.00 58 1010.0
20220119033921 31 333 0.0 0.0 0.00 0.00 0.00 65 1010.1
20220119033420 31 333 0.0 0.0 0.00 0.00 0.00 64 1010.0
20220119032919 31 333 0.0 0.0 0.00 0.00 0.00 68 1010.1
20220119032418 30 333 0.0 0.0 0.00 0.00 0.00 67 1010.0
20220119031917 30 333 0.0 0.0 0.00 0.00 0.00 67 1010.1
20220119031416 30 333 0.0 0.0 0.00 0.00 0.00 66 1010.1
20220119030915 30 333 0.0 0.0 0.00 0.00 0.00 65 1009.7
20220119030414 30 333 0.0 0.0 0.00 0.00 0.00 62 1009.7
20220119025913 30 333 0.0 0.0 0.00 0.00 0.00 65 1010.1
20220119025411 30 333 0.0 0.0 0.00 0.00 0.00 65 1010.0
20220119024911 30 333 0.0 0.0 0.00 0.00 0.00 61 1009.8
20220119024411 30 333 0.0 0.0 0.00 0.00 0.00 63 1009.8
20220119023910 30 333 0.0 0.0 0.00 0.00 0.00 60 1010.0
20220119023409 30 333 0.0 0.0 0.00 0.00 0.00 59 1009.7
20220119022908 31 333 0.0 0.0 0.00 0.00 0.00 63 1009.8
20220119022407 31 333 0.0 0.0 0.00 0.00 0.00 65 1009.6
20220119021907 31 333 0.0 0.0 0.00 0.00 0.00 61 1010.0
20220119021406 30 333 0.0 0.0 0.00 0.00 0.00 61 1009.6
20220119020905 30 333 0.0 0.0 0.00 0.00 0.00 65 1009.6
20220119020405 30 333 0.0 0.0 0.00 0.00 0.00 64 1009.8
20220119015904 31 333 0.0 0.0 0.00 0.00 0.00 68 1009.8
20220119015403 31 333 0.0 0.0 0.00 0.00 0.00 63 1009.7
20220119014902 31 333 0.0 0.0 0.00 0.00 0.00 58 1009.7
20220119014403 31 333 0.0 0.0 0.00 0.00 0.00 57 1009.5
20220119013902 32 333 0.0 1.0 0.00 0.00 0.00 60 1009.6
20220119013401 31 332 0.0 0.0 0.00 0.00 0.00 62 1009.8
20220119012900 31 332 0.0 0.0 0.00 0.00 0.00 63 1009.6
20220119012358 31 332 0.0 0.0 0.00 0.00 0.00 63 1009.5
20220119011857 31 332 0.0 0.0 0.00 0.00 0.00 65 1009.7
20220119011356 31 332 0.0 0.0 0.00 0.00 0.00 64 1009.3
20220119010855 31 332 0.0 0.0 0.00 0.00 0.00 65 1009.3
20220119010354 31 332 0.0 0.0 0.00 0.00 0.00 65 1009.6
20220119005853 31 332 0.0 0.0 0.00 0.00 0.00 63 1009.5
20220119005352 31 332 0.0 0.0 0.00 0.00 0.00 66 1009.3
20220119004852 31 332 1.0 1.0 0.00 0.00 0.00 63 1009.6
20220119004351 31 332 0.0 0.0 0.00 0.00 0.00 64 1009.7
20220119003849 31 332 0.0 0.0 0.00 0.00 0.00 60 1009.3
20220119003348 32 331 0.0 0.0 0.00 0.00 0.00 61 1009.6
20220119002847 32 331 0.0 0.0 0.00 0.00 0.00 59 1009.5
20220119002345 32 331 0.0 0.0 0.00 0.00 0.00 63 1009.5
20220119001846 33 331 0.0 0.0 0.00 0.00 0.00 55 1009.6
20220119001345 33 331 0.0 0.0 0.00 0.00 0.00 52 1009.6
20220119000844 33 332 0.0 0.0 0.00 0.00 0.00 51 1009.5
20220119000343 33 339 2.0 2.0 0.00 0.00 0.00 52 1009.6
20220118235842 34 313 0.0 0.0 0.00 0.00 0.00 54 1009.6
20220118235341 35 351 2.0 3.0 0.00 0.00 0.00 56 1009.5
20220118234840 35 331 1.0 1.0 0.00 0.00 0.00 50 1009.6
20220118234338 35 136 5.0 7.0 0.00 0.00 0.00 50 1009.2
20220118233837 36 335 1.0 1.0 0.00 0.00 0.00 50 1009.2
20220118233336 36 293 2.0 2.0 0.00 0.00 0.00 54 1009.7
20220118232835 36 314 0.0 1.0 0.00 0.00 0.00 52 1009.2
20220118232334 37 304 2.0 2.0 0.00 0.00 0.00 51 1009.2
20220118231834 37 326 1.0 1.0 0.00 0.00 0.00 50 1009.2
20220118231333 37 314 0.0 0.0 0.00 0.00 0.00 49 1009.5
20220118230832 37 304 1.0 1.0 0.00 0.00 0.00 52 1009.8
20220118230331 37 308 1.0 1.0 0.00 0.00 0.00 52 1009.6
20220118225828 37 298 2.0 2.0 0.00 0.00 0.00 49 1009.5
20220118225328 37 330 0.0 0.0 0.00 0.00 0.00 49 1009.3
20220118224826 37 325 1.0 1.0 0.00 0.00 0.00 48 1009.7
20220118224326 37 309 0.0 0.0 0.00 0.00 0.00 50 1009.7
20220118223825 37 301 2.0 2.0 0.00 0.00 0.00 52 1010.0
20220118223324 37 314 0.0 0.0 0.00 0.00 0.00 49 1009.6
20220118222823 37 297 1.0 2.0 0.00 0.00 0.00 52 1009.7
20220118222322 37 316 0.0 0.0 0.00 0.00 0.00 50 1009.3
20220118221821 37 289 2.0 2.0 0.00 0.00 0.00 50 1009.8
20220118221320 37 286 2.0 2.0 0.00 0.00 0.00 48 1009.7
20220118220818 38 304 1.0 1.0 0.00 0.00 0.00 46 1009.6
20220118220316 37 296 2.0 2.0 0.00 0.00 0.00 47 1009.5
20220118215815 38 309 1.0 1.0 0.00 0.00 0.00 49 1009.3
20220118215314 37 346 1.0 1.0 0.00 0.00 0.00 47 1009.6
20220118214813 37 309 1.0 1.0 0.00 0.00 0.00 47 1009.6
20220118214312 36 341 0.0 1.0 0.00 0.00 0.00 48 1009.6
20220118213811 35 307 1.0 1.0 0.00 0.00 0.00 50 1009.5
20220118213309 35 325 0.0 0.0 0.00 0.00 0.00 49 1009.6
20220118212808 35 310 2.0 2.0 0.00 0.00 0.00 49 1009.6
20220118212307 35 109 5.0 5.0 0.00 0.00 0.00 49 1009.7
20220118211806 36 306 1.0 1.0 0.00 0.00 0.00 51 1009.6
20220118211305 35 291 2.0 2.0 0.00 0.00 0.00 53 1009.5
20220118210804 37 277 3.0 3.0 0.00 0.00 0.00 50 1009.6
20220118210303 36 1 3.0 3.0 0.00 0.00 0.00 50 1009.8
20220118205801 35 290 1.0 1.0 0.00 0.00 0.00 49 1009.7
20220118205301 36 282 3.0 3.0 0.00 0.00 0.00 48 1009.6
20220118204800 36 289 2.0 2.0 0.00 0.00 0.00 49 1009.8
20220118204259 37 353 2.0 3.0 0.00 0.00 0.00 47 1009.7